sensor_id;sensor_type;location;lat;lon;timestamp;P1;durP1;ratioP1;P2;durP2;ratioP2
59998;SDS011;45859;51.378;6.736;2022-11-20T00:00:56;17.40;;;8.73;;
59998;SDS011;45859;51.378;6.736;2022-11-20T00:03:22;29.77;;;9.97;;
59998;SDS011;45859;51.378;6.736;2022-11-20T00:05:48;22.40;;;10.43;;
59998;SDS011;45859;51.378;6.736;2022-11-20T00:08:13;22.23;;;9.07;;
59998;SDS011;45859;51.378;6.736;2022-11-20T00:10:39;21.40;;;9.07;;
59998;SDS011;45859;51.378;6.736;2022-11-20T00:13:06;23.10;;;9.37;;
59998;SDS011;45859;51.378;6.736;2022-11-20T00:15:32;25.27;;;11.47;;
59998;SDS011;45859;51.378;6.736;2022-11-20T00:17:58;27.63;;;9.77;;
59998;SDS011;45859;51.378;6.736;2022-11-20T00:20:24;22.50;;;9.53;;
59998;SDS011;45859;51.378;6.736;2022-11-20T00:22:59;23.43;;;10.33;;
59998;SDS011;45859;51.378;6.736;2022-11-20T00:25:24;24.33;;;10.60;;
59998;SDS011;45859;51.378;6.736;2022-11-20T00:27:50;20.43;;;10.57;;
59998;SDS011;45859;51.378;6.736;2022-11-20T00:30:16;21.10;;;9.07;;
59998;SDS011;45859;51.378;6.736;2022-11-20T00:32:41;20.80;;;9.90;;
59998;SDS011;45859;51.378;6.736;2022-11-20T00:35:07;23.50;;;11.07;;
59998;SDS011;45859;51.378;6.736;2022-11-20T00:37:33;20.43;;;9.50;;
59998;SDS011;45859;51.378;6.736;2022-11-20T00:39:58;17.97;;;9.47;;
59998;SDS011;45859;51.378;6.736;2022-11-20T00:42:24;18.23;;;9.20;;
59998;SDS011;45859;51.378;6.736;2022-11-20T00:44:49;22.23;;;9.23;;
59998;SDS011;45859;51.378;6.736;2022-11-20T00:47:15;21.27;;;9.60;;
59998;SDS011;45859;51.378;6.736;2022-11-20T00:49:41;21.30;;;9.37;;
59998;SDS011;45859;51.378;6.736;2022-11-20T00:52:06;20.03;;;10.27;;
59998;SDS011;45859;51.378;6.736;2022-11-20T00:54:32;19.63;;;9.57;;
59998;SDS011;45859;51.378;6.736;2022-11-20T00:57:04;24.60;;;9.90;;
59998;SDS011;45859;51.378;6.736;2022-11-20T00:59:29;20.97;;;9.07;;
59998;SDS011;45859;51.378;6.736;2022-11-20T01:01:55;23.47;;;9.97;;
59998;SDS011;45859;51.378;6.736;2022-11-20T01:04:20;20.80;;;10.17;;
59998;SDS011;45859;51.378;6.736;2022-11-20T01:06:49;20.30;;;10.63;;
59998;SDS011;45859;51.378;6.736;2022-11-20T01:09:21;23.57;;;10.53;;
59998;SDS011;45859;51.378;6.736;2022-11-20T01:11:46;20.37;;;9.60;;
59998;SDS011;45859;51.378;6.736;2022-11-20T01:14:13;26.10;;;10.73;;
59998;SDS011;45859;51.378;6.736;2022-11-20T01:16:41;21.30;;;9.97;;
59998;SDS011;45859;51.378;6.736;2022-11-20T01:19:14;19.93;;;9.93;;
59998;SDS011;45859;51.378;6.736;2022-11-20T01:21:50;24.63;;;9.97;;
59998;SDS011;45859;51.378;6.736;2022-11-20T01:24:18;17.13;;;9.40;;
59998;SDS011;45859;51.378;6.736;2022-11-20T01:26:45;19.20;;;9.80;;
59998;SDS011;45859;51.378;6.736;2022-11-20T01:29:14;20.90;;;10.00;;
59998;SDS011;45859;51.378;6.736;2022-11-20T01:31:42;20.60;;;9.80;;
59998;SDS011;45859;51.378;6.736;2022-11-20T01:34:12;26.63;;;11.03;;
59998;SDS011;45859;51.378;6.736;2022-11-20T01:36:39;21.73;;;9.57;;
59998;SDS011;45859;51.378;6.736;2022-11-20T01:39:13;22.03;;;10.23;;
59998;SDS011;45859;51.378;6.736;2022-11-20T01:41:42;19.87;;;10.03;;
59998;SDS011;45859;51.378;6.736;2022-11-20T01:47:21;23.00;;;9.60;;
59998;SDS011;45859;51.378;6.736;2022-11-20T01:50:05;24.00;;;10.30;;
59998;SDS011;45859;51.378;6.736;2022-11-20T01:52:45;20.17;;;9.47;;
59998;SDS011;45859;51.378;6.736;2022-11-20T01:55:19;17.63;;;9.70;;
59998;SDS011;45859;51.378;6.736;2022-11-20T01:57:48;19.90;;;9.20;;
59998;SDS011;45859;51.378;6.736;2022-11-20T02:00:15;19.30;;;9.60;;
59998;SDS011;45859;51.378;6.736;2022-11-20T02:02:44;22.27;;;10.13;;
59998;SDS011;45859;51.378;6.736;2022-11-20T02:08:00;21.40;;;10.40;;
59998;SDS011;45859;51.378;6.736;2022-11-20T02:10:29;20.47;;;10.17;;
59998;SDS011;45859;51.378;6.736;2022-11-20T02:15:22;24.53;;;11.00;;
59998;SDS011;45859;51.378;6.736;2022-11-20T02:17:48;18.97;;;9.20;;
59998;SDS011;45859;51.378;6.736;2022-11-20T02:20:14;22.07;;;9.90;;
59998;SDS011;45859;51.378;6.736;2022-11-20T02:25:41;23.10;;;9.87;;
59998;SDS011;45859;51.378;6.736;2022-11-20T02:28:08;21.60;;;9.70;;
59998;SDS011;45859;51.378;6.736;2022-11-20T02:30:35;23.27;;;10.23;;
59998;SDS011;45859;51.378;6.736;2022-11-20T02:33:00;22.87;;;10.17;;
59998;SDS011;45859;51.378;6.736;2022-11-20T02:37:53;20.77;;;10.50;;
59998;SDS011;45859;51.378;6.736;2022-11-20T02:40:20;18.80;;;8.10;;
59998;SDS011;45859;51.378;6.736;2022-11-20T02:42:46;21.37;;;9.50;;
59998;SDS011;45859;51.378;6.736;2022-11-20T02:45:12;21.10;;;9.43;;
59998;SDS011;45859;51.378;6.736;2022-11-20T02:47:38;22.37;;;9.33;;
59998;SDS011;45859;51.378;6.736;2022-11-20T02:50:04;21.47;;;9.53;;
59998;SDS011;45859;51.378;6.736;2022-11-20T02:52:30;18.17;;;9.03;;
59998;SDS011;45859;51.378;6.736;2022-11-20T02:54:56;24.67;;;10.63;;
59998;SDS011;45859;51.378;6.736;2022-11-20T02:57:21;22.30;;;10.07;;
59998;SDS011;45859;51.378;6.736;2022-11-20T02:59:47;23.53;;;10.00;;
59998;SDS011;45859;51.378;6.736;2022-11-20T03:02:13;19.87;;;9.23;;
59998;SDS011;45859;51.378;6.736;2022-11-20T03:04:38;18.20;;;8.70;;
59998;SDS011;45859;51.378;6.736;2022-11-20T03:07:04;20.07;;;9.30;;
59998;SDS011;45859;51.378;6.736;2022-11-20T03:09:30;19.90;;;9.00;;
59998;SDS011;45859;51.378;6.736;2022-11-20T03:11:55;18.47;;;9.50;;
59998;SDS011;45859;51.378;6.736;2022-11-20T03:14:21;20.33;;;9.43;;
59998;SDS011;45859;51.378;6.736;2022-11-20T03:16:46;17.57;;;8.90;;
59998;SDS011;45859;51.378;6.736;2022-11-20T03:19:12;21.10;;;9.10;;
59998;SDS011;45859;51.378;6.736;2022-11-20T03:21:38;19.10;;;9.87;;
59998;SDS011;45859;51.378;6.736;2022-11-20T03:24:04;28.90;;;11.20;;
59998;SDS011;45859;51.378;6.736;2022-11-20T03:26:30;18.77;;;8.63;;
59998;SDS011;45859;51.378;6.736;2022-11-20T03:28:56;20.13;;;9.87;;
59998;SDS011;45859;51.378;6.736;2022-11-20T03:31:28;16.63;;;8.20;;
59998;SDS011;45859;51.378;6.736;2022-11-20T03:34:01;20.77;;;10.20;;
59998;SDS011;45859;51.378;6.736;2022-11-20T03:36:28;17.90;;;9.03;;
59998;SDS011;45859;51.378;6.736;2022-11-20T03:38:54;26.63;;;11.00;;
59998;SDS011;45859;51.378;6.736;2022-11-20T03:41:22;21.83;;;10.90;;
59998;SDS011;45859;51.378;6.736;2022-11-20T03:43:50;19.90;;;9.47;;
59998;SDS011;45859;51.378;6.736;2022-11-20T03:46:20;27.53;;;9.97;;
59998;SDS011;45859;51.378;6.736;2022-11-20T03:48:46;22.07;;;10.53;;
59998;SDS011;45859;51.378;6.736;2022-11-20T03:51:13;26.20;;;12.50;;
59998;SDS011;45859;51.378;6.736;2022-11-20T03:53:40;27.13;;;11.30;;
59998;SDS011;45859;51.378;6.736;2022-11-20T03:56:06;23.07;;;11.33;;
59998;SDS011;45859;51.378;6.736;2022-11-20T03:58:33;22.67;;;12.93;;
59998;SDS011;45859;51.378;6.736;2022-11-20T04:01:07;25.40;;;12.53;;
59998;SDS011;45859;51.378;6.736;2022-11-20T04:03:35;29.50;;;12.80;;
59998;SDS011;45859;51.378;6.736;2022-11-20T04:06:12;30.23;;;14.43;;
59998;SDS011;45859;51.378;6.736;2022-11-20T04:08:43;31.73;;;13.23;;
59998;SDS011;45859;51.378;6.736;2022-11-20T04:13:45;33.80;;;15.17;;
59998;SDS011;45859;51.378;6.736;2022-11-20T04:16:12;26.60;;;14.05;;
59998;SDS011;45859;51.378;6.736;2022-11-20T04:18:38;34.57;;;14.00;;
59998;SDS011;45859;51.378;6.736;2022-11-20T04:21:04;26.30;;;13.30;;
59998;SDS011;45859;51.378;6.736;2022-11-20T04:23:30;39.47;;;15.13;;
59998;SDS011;45859;51.378;6.736;2022-11-20T04:28:34;28.57;;;13.33;;
59998;SDS011;45859;51.378;6.736;2022-11-20T04:33:33;30.43;;;14.03;;
59998;SDS011;45859;51.378;6.736;2022-11-20T04:36:00;30.43;;;13.67;;
59998;SDS011;45859;51.378;6.736;2022-11-20T04:38:35;24.17;;;13.17;;
59998;SDS011;45859;51.378;6.736;2022-11-20T04:41:01;27.53;;;12.50;;
59998;SDS011;45859;51.378;6.736;2022-11-20T04:43:28;26.30;;;14.53;;
59998;SDS011;45859;51.378;6.736;2022-11-20T04:45:54;24.77;;;13.43;;
59998;SDS011;45859;51.378;6.736;2022-11-20T04:48:21;28.07;;;13.00;;
59998;SDS011;45859;51.378;6.736;2022-11-20T04:50:47;28.60;;;12.17;;
59998;SDS011;45859;51.378;6.736;2022-11-20T04:53:13;27.60;;;13.83;;
59998;SDS011;45859;51.378;6.736;2022-11-20T04:55:38;27.87;;;13.10;;
59998;SDS011;45859;51.378;6.736;2022-11-20T04:58:04;27.37;;;12.50;;
59998;SDS011;45859;51.378;6.736;2022-11-20T05:00:30;26.47;;;12.33;;
59998;SDS011;45859;51.378;6.736;2022-11-20T05:02:55;27.17;;;12.77;;
59998;SDS011;45859;51.378;6.736;2022-11-20T05:05:21;26.33;;;13.07;;
59998;SDS011;45859;51.378;6.736;2022-11-20T05:07:47;24.33;;;12.40;;
59998;SDS011;45859;51.378;6.736;2022-11-20T05:10:12;23.33;;;11.73;;
59998;SDS011;45859;51.378;6.736;2022-11-20T05:12:38;25.07;;;13.03;;
59998;SDS011;45859;51.378;6.736;2022-11-20T05:15:03;24.73;;;12.70;;
59998;SDS011;45859;51.378;6.736;2022-11-20T05:17:29;24.43;;;12.87;;
59998;SDS011;45859;51.378;6.736;2022-11-20T05:19:55;23.47;;;12.73;;
59998;SDS011;45859;51.378;6.736;2022-11-20T05:22:21;29.30;;;13.37;;
59998;SDS011;45859;51.378;6.736;2022-11-20T05:24:46;27.10;;;13.40;;
59998;SDS011;45859;51.378;6.736;2022-11-20T05:27:12;30.10;;;14.03;;
59998;SDS011;45859;51.378;6.736;2022-11-20T05:29:37;26.53;;;12.90;;
59998;SDS011;45859;51.378;6.736;2022-11-20T05:32:03;24.90;;;12.87;;
59998;SDS011;45859;51.378;6.736;2022-11-20T05:34:31;28.73;;;12.13;;
59998;SDS011;45859;51.378;6.736;2022-11-20T05:36:56;28.20;;;12.63;;
59998;SDS011;45859;51.378;6.736;2022-11-20T05:39:22;27.67;;;13.80;;
59998;SDS011;45859;51.378;6.736;2022-11-20T05:41:47;27.17;;;12.57;;
59998;SDS011;45859;51.378;6.736;2022-11-20T05:44:33;29.97;;;14.17;;
59998;SDS011;45859;51.378;6.736;2022-11-20T05:46:58;29.40;;;14.50;;
59998;SDS011;45859;51.378;6.736;2022-11-20T05:49:24;24.87;;;13.03;;
59998;SDS011;45859;51.378;6.736;2022-11-20T05:51:50;32.17;;;14.43;;
59998;SDS011;45859;51.378;6.736;2022-11-20T05:54:15;25.80;;;12.83;;
59998;SDS011;45859;51.378;6.736;2022-11-20T05:56:41;26.83;;;13.30;;
59998;SDS011;45859;51.378;6.736;2022-11-20T05:59:06;29.10;;;13.83;;
59998;SDS011;45859;51.378;6.736;2022-11-20T06:01:32;28.60;;;12.23;;
59998;SDS011;45859;51.378;6.736;2022-11-20T06:03:58;35.67;;;14.63;;
59998;SDS011;45859;51.378;6.736;2022-11-20T06:06:23;32.00;;;13.07;;
59998;SDS011;45859;51.378;6.736;2022-11-20T06:08:50;25.47;;;12.03;;
59998;SDS011;45859;51.378;6.736;2022-11-20T06:11:16;30.63;;;12.57;;
59998;SDS011;45859;51.378;6.736;2022-11-20T06:13:42;22.13;;;11.07;;
59998;SDS011;45859;51.378;6.736;2022-11-20T06:16:09;23.63;;;13.17;;
59998;SDS011;45859;51.378;6.736;2022-11-20T06:18:36;21.07;;;11.03;;
59998;SDS011;45859;51.378;6.736;2022-11-20T06:21:03;29.87;;;13.90;;
59998;SDS011;45859;51.378;6.736;2022-11-20T06:23:33;32.73;;;12.47;;
59998;SDS011;45859;51.378;6.736;2022-11-20T06:26:01;27.50;;;13.93;;
59998;SDS011;45859;51.378;6.736;2022-11-20T06:28:28;31.97;;;14.97;;
59998;SDS011;45859;51.378;6.736;2022-11-20T06:30:54;28.20;;;13.30;;
59998;SDS011;45859;51.378;6.736;2022-11-20T06:33:19;27.03;;;13.97;;
59998;SDS011;45859;51.378;6.736;2022-11-20T06:35:45;23.10;;;11.13;;
59998;SDS011;45859;51.378;6.736;2022-11-20T06:38:10;27.90;;;13.03;;
59998;SDS011;45859;51.378;6.736;2022-11-20T06:40:39;24.60;;;10.33;;
59998;SDS011;45859;51.378;6.736;2022-11-20T06:43:05;28.87;;;12.60;;
59998;SDS011;45859;51.378;6.736;2022-11-20T06:45:31;29.60;;;13.37;;
59998;SDS011;45859;51.378;6.736;2022-11-20T06:47:57;25.93;;;12.10;;
59998;SDS011;45859;51.378;6.736;2022-11-20T06:50:23;31.17;;;11.47;;
59998;SDS011;45859;51.378;6.736;2022-11-20T06:52:49;28.10;;;12.60;;
59998;SDS011;45859;51.378;6.736;2022-11-20T06:55:14;25.33;;;12.83;;
59998;SDS011;45859;51.378;6.736;2022-11-20T06:57:40;32.73;;;13.20;;
59998;SDS011;45859;51.378;6.736;2022-11-20T07:00:05;24.50;;;12.37;;
59998;SDS011;45859;51.378;6.736;2022-11-20T07:02:31;32.83;;;13.37;;
59998;SDS011;45859;51.378;6.736;2022-11-20T07:04:57;26.90;;;12.93;;
59998;SDS011;45859;51.378;6.736;2022-11-20T07:07:23;25.40;;;12.60;;
59998;SDS011;45859;51.378;6.736;2022-11-20T07:09:48;26.40;;;12.37;;
59998;SDS011;45859;51.378;6.736;2022-11-20T07:12:14;20.30;;;10.37;;
59998;SDS011;45859;51.378;6.736;2022-11-20T07:14:39;28.30;;;12.30;;
59998;SDS011;45859;51.378;6.736;2022-11-20T07:17:05;25.30;;;12.70;;
59998;SDS011;45859;51.378;6.736;2022-11-20T07:19:30;27.30;;;13.43;;
59998;SDS011;45859;51.378;6.736;2022-11-20T07:21:56;27.77;;;14.03;;
59998;SDS011;45859;51.378;6.736;2022-11-20T07:24:22;26.63;;;13.10;;
59998;SDS011;45859;51.378;6.736;2022-11-20T07:26:47;24.73;;;11.70;;
59998;SDS011;45859;51.378;6.736;2022-11-20T07:29:14;30.43;;;13.40;;
59998;SDS011;45859;51.378;6.736;2022-11-20T07:31:41;30.80;;;13.20;;
59998;SDS011;45859;51.378;6.736;2022-11-20T07:34:07;28.43;;;13.93;;
59998;SDS011;45859;51.378;6.736;2022-11-20T07:36:32;24.67;;;12.87;;
59998;SDS011;45859;51.378;6.736;2022-11-20T07:38:58;22.10;;;12.17;;
59998;SDS011;45859;51.378;6.736;2022-11-20T07:41:23;24.27;;;12.50;;
59998;SDS011;45859;51.378;6.736;2022-11-20T07:43:49;24.53;;;13.77;;
59998;SDS011;45859;51.378;6.736;2022-11-20T07:46:14;27.93;;;12.87;;
59998;SDS011;45859;51.378;6.736;2022-11-20T07:48:40;32.23;;;13.20;;
59998;SDS011;45859;51.378;6.736;2022-11-20T07:51:06;25.23;;;12.50;;
59998;SDS011;45859;51.378;6.736;2022-11-20T07:53:31;28.80;;;13.00;;
59998;SDS011;45859;51.378;6.736;2022-11-20T07:56:00;25.87;;;12.33;;
59998;SDS011;45859;51.378;6.736;2022-11-20T07:58:28;23.88;;;12.32;;
59998;SDS011;45859;51.378;6.736;2022-11-20T08:00:54;23.67;;;11.97;;
59998;SDS011;45859;51.378;6.736;2022-11-20T08:03:20;25.40;;;11.50;;
59998;SDS011;45859;51.378;6.736;2022-11-20T08:05:46;29.80;;;14.20;;
59998;SDS011;45859;51.378;6.736;2022-11-20T08:08:12;25.80;;;12.53;;
59998;SDS011;45859;51.378;6.736;2022-11-20T08:10:37;29.10;;;13.57;;
59998;SDS011;45859;51.378;6.736;2022-11-20T08:13:03;29.53;;;15.60;;
59998;SDS011;45859;51.378;6.736;2022-11-20T08:15:48;28.10;;;12.93;;
59998;SDS011;45859;51.378;6.736;2022-11-20T08:18:17;29.27;;;14.13;;
59998;SDS011;45859;51.378;6.736;2022-11-20T08:20:43;25.50;;;11.67;;
59998;SDS011;45859;51.378;6.736;2022-11-20T08:23:09;21.00;;;10.73;;
59998;SDS011;45859;51.378;6.736;2022-11-20T08:25:36;26.73;;;13.07;;
59998;SDS011;45859;51.378;6.736;2022-11-20T08:28:04;27.07;;;12.30;;
59998;SDS011;45859;51.378;6.736;2022-11-20T08:30:31;26.90;;;12.77;;
59998;SDS011;45859;51.378;6.736;2022-11-20T08:33:00;26.03;;;11.17;;
59998;SDS011;45859;51.378;6.736;2022-11-20T08:35:28;23.33;;;12.00;;
59998;SDS011;45859;51.378;6.736;2022-11-20T08:37:57;24.77;;;13.10;;
59998;SDS011;45859;51.378;6.736;2022-11-20T08:40:22;26.93;;;12.67;;
59998;SDS011;45859;51.378;6.736;2022-11-20T08:42:48;30.80;;;13.03;;
59998;SDS011;45859;51.378;6.736;2022-11-20T08:45:18;25.97;;;13.63;;
59998;SDS011;45859;51.378;6.736;2022-11-20T08:47:44;25.03;;;12.47;;
59998;SDS011;45859;51.378;6.736;2022-11-20T08:50:11;17.63;;;9.13;;
59998;SDS011;45859;51.378;6.736;2022-11-20T08:52:38;29.27;;;13.97;;
59998;SDS011;45859;51.378;6.736;2022-11-20T08:55:04;27.00;;;12.53;;
59998;SDS011;45859;51.378;6.736;2022-11-20T08:57:34;27.73;;;12.63;;
59998;SDS011;45859;51.378;6.736;2022-11-20T09:00:01;22.30;;;11.80;;
59998;SDS011;45859;51.378;6.736;2022-11-20T09:02:30;23.02;;;11.75;;
59998;SDS011;45859;51.378;6.736;2022-11-20T09:04:57;25.30;;;13.33;;
59998;SDS011;45859;51.378;6.736;2022-11-20T09:07:23;26.13;;;12.50;;
59998;SDS011;45859;51.378;6.736;2022-11-20T09:09:48;21.93;;;11.03;;
59998;SDS011;45859;51.378;6.736;2022-11-20T09:12:14;25.53;;;12.97;;
59998;SDS011;45859;51.378;6.736;2022-11-20T09:14:40;23.63;;;12.20;;
59998;SDS011;45859;51.378;6.736;2022-11-20T09:17:05;21.37;;;10.57;;
59998;SDS011;45859;51.378;6.736;2022-11-20T09:19:32;24.60;;;10.30;;
59998;SDS011;45859;51.378;6.736;2022-11-20T09:21:58;26.97;;;13.10;;
59998;SDS011;45859;51.378;6.736;2022-11-20T09:24:25;23.50;;;11.57;;
59998;SDS011;45859;51.378;6.736;2022-11-20T09:26:51;20.17;;;10.37;;
59998;SDS011;45859;51.378;6.736;2022-11-20T09:29:17;23.37;;;11.33;;
59998;SDS011;45859;51.378;6.736;2022-11-20T09:31:42;27.07;;;11.90;;
59998;SDS011;45859;51.378;6.736;2022-11-20T09:34:08;23.90;;;11.00;;
59998;SDS011;45859;51.378;6.736;2022-11-20T09:36:34;23.77;;;10.80;;
59998;SDS011;45859;51.378;6.736;2022-11-20T09:39:03;21.93;;;11.27;;
59998;SDS011;45859;51.378;6.736;2022-11-20T09:41:45;22.47;;;10.53;;
59998;SDS011;45859;51.378;6.736;2022-11-20T09:47:06;19.77;;;9.43;;
59998;SDS011;45859;51.378;6.736;2022-11-20T09:55:18;23.50;;;10.90;;
59998;SDS011;45859;51.378;6.736;2022-11-20T09:57:45;23.67;;;10.63;;
59998;SDS011;45859;51.378;6.736;2022-11-20T10:00:13;18.07;;;8.67;;
59998;SDS011;45859;51.378;6.736;2022-11-20T10:02:58;20.50;;;8.90;;
59998;SDS011;45859;51.378;6.736;2022-11-20T10:05:48;17.83;;;9.23;;
59998;SDS011;45859;51.378;6.736;2022-11-20T10:08:19;18.33;;;8.77;;
59998;SDS011;45859;51.378;6.736;2022-11-20T10:10:48;20.07;;;8.87;;
59998;SDS011;45859;51.378;6.736;2022-11-20T10:19:23;19.93;;;8.53;;
59998;SDS011;45859;51.378;6.736;2022-11-20T10:22:15;18.67;;;8.03;;
59998;SDS011;45859;51.378;6.736;2022-11-20T10:24:55;20.93;;;10.13;;
59998;SDS011;45859;51.378;6.736;2022-11-20T10:30:14;20.37;;;9.90;;
59998;SDS011;45859;51.378;6.736;2022-11-20T10:32:46;15.67;;;7.67;;
59998;SDS011;45859;51.378;6.736;2022-11-20T10:37:51;10.83;;;5.10;;
59998;SDS011;45859;51.378;6.736;2022-11-20T10:43:13;18.97;;;9.40;;
59998;SDS011;45859;51.378;6.736;2022-11-20T10:45:50;21.70;;;9.40;;
59998;SDS011;45859;51.378;6.736;2022-11-20T10:48:26;19.80;;;9.33;;
59998;SDS011;45859;51.378;6.736;2022-11-20T10:51:05;23.03;;;10.63;;
59998;SDS011;45859;51.378;6.736;2022-11-20T10:53:47;19.33;;;8.53;;
59998;SDS011;45859;51.378;6.736;2022-11-20T10:56:23;20.03;;;9.93;;
59998;SDS011;45859;51.378;6.736;2022-11-20T11:02:20;19.90;;;9.27;;
59998;SDS011;45859;51.378;6.736;2022-11-20T11:04:53;18.23;;;9.15;;
59998;SDS011;45859;51.378;6.736;2022-11-20T11:10:43;18.05;;;8.50;;
59998;SDS011;45859;51.378;6.736;2022-11-20T11:13:44;23.60;;;11.17;;
59998;SDS011;45859;51.378;6.736;2022-11-20T11:16:17;11.93;;;6.17;;
59998;SDS011;45859;51.378;6.736;2022-11-20T11:18:49;13.65;;;6.55;;
59998;SDS011;45859;51.378;6.736;2022-11-20T11:21:24;11.50;;;5.50;;
59998;SDS011;45859;51.378;6.736;2022-11-20T11:24:01;13.40;;;6.27;;
59998;SDS011;45859;51.378;6.736;2022-11-20T11:26:28;16.10;;;8.77;;
59998;SDS011;45859;51.378;6.736;2022-11-20T11:28:58;20.63;;;7.87;;
59998;SDS011;45859;51.378;6.736;2022-11-20T11:31:28;18.23;;;6.97;;
59998;SDS011;45859;51.378;6.736;2022-11-20T11:34:08;19.67;;;9.07;;
59998;SDS011;45859;51.378;6.736;2022-11-20T11:36:37;16.00;;;6.30;;
59998;SDS011;45859;51.378;6.736;2022-11-20T11:39:04;25.17;;;8.97;;
59998;SDS011;45859;51.378;6.736;2022-11-20T11:41:35;21.43;;;8.60;;
59998;SDS011;45859;51.378;6.736;2022-11-20T11:44:20;18.70;;;7.87;;
59998;SDS011;45859;51.378;6.736;2022-11-20T11:47:21;12.37;;;5.90;;
59998;SDS011;45859;51.378;6.736;2022-11-20T11:55:37;24.50;;;7.87;;
59998;SDS011;45859;51.378;6.736;2022-11-20T12:09:58;17.50;;;8.40;;
59998;SDS011;45859;51.378;6.736;2022-11-20T12:12:31;18.63;;;8.93;;
59998;SDS011;45859;51.378;6.736;2022-11-20T12:15:11;13.87;;;6.57;;
59998;SDS011;45859;51.378;6.736;2022-11-20T12:17:40;14.50;;;6.57;;
59998;SDS011;45859;51.378;6.736;2022-11-20T12:20:15;15.23;;;6.80;;
59998;SDS011;45859;51.378;6.736;2022-11-20T12:22:44;23.10;;;8.80;;
59998;SDS011;45859;51.378;6.736;2022-11-20T12:31:08;17.73;;;7.37;;
59998;SDS011;45859;51.378;6.736;2022-11-20T12:50:40;19.33;;;8.52;;
59998;SDS011;45859;51.378;6.736;2022-11-20T12:53:30;23.77;;;8.38;;
59998;SDS011;45859;51.378;6.736;2022-11-20T13:04:08;15.73;;;6.63;;
59998;SDS011;45859;51.378;6.736;2022-11-20T13:06:44;8.83;;;4.83;;
59998;SDS011;45859;51.378;6.736;2022-11-20T13:09:10;16.07;;;6.70;;
59998;SDS011;45859;51.378;6.736;2022-11-20T13:16:54;22.48;;;8.73;;
59998;SDS011;45859;51.378;6.736;2022-11-20T13:19:30;17.70;;;8.47;;
59998;SDS011;45859;51.378;6.736;2022-11-20T13:21:56;18.63;;;7.80;;
59998;SDS011;45859;51.378;6.736;2022-11-20T13:24:23;16.00;;;8.63;;
59998;SDS011;45859;51.378;6.736;2022-11-20T13:29:27;18.90;;;9.27;;
59998;SDS011;45859;51.378;6.736;2022-11-20T13:32:01;17.50;;;8.53;;
59998;SDS011;45859;51.378;6.736;2022-11-20T13:34:54;21.47;;;9.27;;
59998;SDS011;45859;51.378;6.736;2022-11-20T13:37:25;17.42;;;9.38;;
59998;SDS011;45859;51.378;6.736;2022-11-20T13:45:31;23.83;;;9.83;;
59998;SDS011;45859;51.378;6.736;2022-11-20T13:48:00;15.33;;;4.67;;
59998;SDS011;45859;51.378;6.736;2022-11-20T13:53:07;30.17;;;12.33;;
59998;SDS011;45859;51.378;6.736;2022-11-20T13:55:38;18.17;;;8.03;;
59998;SDS011;45859;51.378;6.736;2022-11-20T14:01:20;23.47;;;9.37;;
59998;SDS011;45859;51.378;6.736;2022-11-20T14:03:47;18.40;;;6.80;;
59998;SDS011;45859;51.378;6.736;2022-11-20T14:08:48;16.23;;;6.97;;
59998;SDS011;45859;51.378;6.736;2022-11-20T14:13:39;20.90;;;10.20;;
59998;SDS011;45859;51.378;6.736;2022-11-20T14:16:25;25.00;;;10.07;;
59998;SDS011;45859;51.378;6.736;2022-11-20T14:18:53;27.30;;;12.30;;
59998;SDS011;45859;51.378;6.736;2022-11-20T14:21:26;31.10;;;11.83;;
59998;SDS011;45859;51.378;6.736;2022-11-20T14:24:02;22.47;;;9.23;;
59998;SDS011;45859;51.378;6.736;2022-11-20T14:26:31;25.53;;;10.10;;
59998;SDS011;45859;51.378;6.736;2022-11-20T14:28:58;24.20;;;10.73;;
59998;SDS011;45859;51.378;6.736;2022-11-20T14:31:25;28.00;;;11.50;;
59998;SDS011;45859;51.378;6.736;2022-11-20T14:33:52;26.17;;;10.87;;
59998;SDS011;45859;51.378;6.736;2022-11-20T14:36:20;25.83;;;10.53;;
59998;SDS011;45859;51.378;6.736;2022-11-20T14:38:48;28.03;;;11.37;;
59998;SDS011;45859;51.378;6.736;2022-11-20T14:41:21;30.73;;;12.07;;
59998;SDS011;45859;51.378;6.736;2022-11-20T14:44:08;26.77;;;11.03;;
59998;SDS011;45859;51.378;6.736;2022-11-20T14:46:35;23.30;;;10.57;;
59998;SDS011;45859;51.378;6.736;2022-11-20T14:49:01;17.27;;;8.33;;
59998;SDS011;45859;51.378;6.736;2022-11-20T14:51:37;25.47;;;11.03;;
59998;SDS011;45859;51.378;6.736;2022-11-20T14:54:20;24.65;;;10.85;;
59998;SDS011;45859;51.378;6.736;2022-11-20T14:56:54;24.00;;;11.03;;
59998;SDS011;45859;51.378;6.736;2022-11-20T14:59:31;30.37;;;12.20;;
59998;SDS011;45859;51.378;6.736;2022-11-20T15:02:02;25.67;;;11.30;;
59998;SDS011;45859;51.378;6.736;2022-11-20T15:04:31;27.67;;;12.43;;
59998;SDS011;45859;51.378;6.736;2022-11-20T15:06:58;22.60;;;9.27;;
59998;SDS011;45859;51.378;6.736;2022-11-20T15:09:24;32.03;;;12.47;;
59998;SDS011;45859;51.378;6.736;2022-11-20T15:11:57;30.60;;;12.47;;
59998;SDS011;45859;51.378;6.736;2022-11-20T15:14:25;34.90;;;13.13;;
59998;SDS011;45859;51.378;6.736;2022-11-20T15:16:53;28.97;;;10.40;;
59998;SDS011;45859;51.378;6.736;2022-11-20T15:19:22;30.80;;;12.67;;
59998;SDS011;45859;51.378;6.736;2022-11-20T15:21:49;21.50;;;8.43;;
59998;SDS011;45859;51.378;6.736;2022-11-20T15:24:15;18.97;;;8.20;;
59998;SDS011;45859;51.378;6.736;2022-11-20T15:26:41;30.03;;;12.00;;
59998;SDS011;45859;51.378;6.736;2022-11-20T15:29:10;26.17;;;10.80;;
59998;SDS011;45859;51.378;6.736;2022-11-20T15:31:38;30.87;;;12.33;;
59998;SDS011;45859;51.378;6.736;2022-11-20T15:34:11;24.58;;;9.95;;
59998;SDS011;45859;51.378;6.736;2022-11-20T15:36:38;16.08;;;6.65;;
59998;SDS011;45859;51.378;6.736;2022-11-20T15:39:05;18.53;;;10.03;;
59998;SDS011;45859;51.378;6.736;2022-11-20T15:41:32;25.93;;;12.00;;
59998;SDS011;45859;51.378;6.736;2022-11-20T15:43:59;29.97;;;11.67;;
59998;SDS011;45859;51.378;6.736;2022-11-20T15:46:28;26.43;;;9.87;;
59998;SDS011;45859;51.378;6.736;2022-11-20T15:48:58;24.87;;;9.30;;
59998;SDS011;45859;51.378;6.736;2022-11-20T15:51:29;21.17;;;9.13;;
59998;SDS011;45859;51.378;6.736;2022-11-20T15:53:59;28.53;;;10.60;;
59998;SDS011;45859;51.378;6.736;2022-11-20T15:56:26;22.97;;;10.63;;
59998;SDS011;45859;51.378;6.736;2022-11-20T15:58:52;26.50;;;10.90;;
59998;SDS011;45859;51.378;6.736;2022-11-20T16:01:18;29.37;;;10.77;;
59998;SDS011;45859;51.378;6.736;2022-11-20T16:03:48;20.92;;;7.55;;
59998;SDS011;45859;51.378;6.736;2022-11-20T16:06:14;24.77;;;10.27;;
59998;SDS011;45859;51.378;6.736;2022-11-20T16:08:41;22.23;;;9.77;;
59998;SDS011;45859;51.378;6.736;2022-11-20T16:11:06;28.70;;;9.77;;
59998;SDS011;45859;51.378;6.736;2022-11-20T16:13:35;8.10;;;4.67;;
59998;SDS011;45859;51.378;6.736;2022-11-20T16:16:20;18.73;;;8.13;;
59998;SDS011;45859;51.378;6.736;2022-11-20T16:18:48;20.87;;;8.87;;
59998;SDS011;45859;51.378;6.736;2022-11-20T16:21:14;20.20;;;10.07;;
59998;SDS011;45859;51.378;6.736;2022-11-20T16:23:40;26.73;;;10.07;;
59998;SDS011;45859;51.378;6.736;2022-11-20T16:26:14;19.37;;;7.23;;
59998;SDS011;45859;51.378;6.736;2022-11-20T16:28:45;24.97;;;11.03;;
59998;SDS011;45859;51.378;6.736;2022-11-20T16:31:12;21.00;;;7.90;;
59998;SDS011;45859;51.378;6.736;2022-11-20T16:33:39;20.97;;;9.30;;
59998;SDS011;45859;51.378;6.736;2022-11-20T16:36:09;20.57;;;8.80;;
59998;SDS011;45859;51.378;6.736;2022-11-20T16:38:36;19.90;;;8.73;;